Time;durP1;ratioP1;P1;durP2;ratioP2;P2;SDS_P1;SDS_P2;PMS_P1;PMS_P2;Temp;Humidity;BMP_temperature;BMP_pressure;BME280_temperature;BME280_humidity;BME280_pressure;Samples;Min_cycle;Max_cycle;Signal;HPM_P1;HPM_P2
2022/08/19 00:01:22;;;;;;;39.85;37.20;;;21.40;99.90;;;;;;5012098;28;20714;-78
2022/08/19 00:03:48;;;;;;;47.58;44.63;;;21.50;99.90;;;;;;5012888;28;20227;-78
2022/08/19 00:06:15;;;;;;;52.58;49.50;;;21.50;99.90;;;;;;5012423;28;20190;-78
2022/08/19 00:08:41;;;;;;;58.38;54.58;;;21.50;99.90;;;;;;5015965;28;20176;-78
2022/08/19 00:11:07;;;;;;;54.40;51.25;;;21.50;99.90;;;;;;5013103;28;20529;-78
2022/08/19 00:13:33;;;;;;;68.90;64.88;;;21.50;99.90;;;;;;5011411;28;20282;-79
2022/08/19 00:16:00;;;;;;;69.13;65.13;;;21.50;99.90;;;;;;5011996;28;20183;-79
2022/08/19 00:18:26;;;;;;;73.25;69.25;;;21.50;99.90;;;;;;5011599;28;20668;-78
2022/08/19 00:20:52;;;;;;;67.78;63.95;;;21.40;99.90;;;;;;5012666;28;20211;-79
2022/08/19 00:23:18;;;;;;;56.22;52.90;;;21.40;99.90;;;;;;5028466;28;20661;-79
2022/08/19 00:25:45;;;;;;;46.03;43.15;;;21.40;99.90;;;;;;5015936;28;20241;-79
2022/08/19 00:28:11;;;;;;;59.17;55.72;;;21.40;99.90;;;;;;5014445;28;20175;-79
2022/08/19 00:30:37;;;;;;;47.42;44.35;;;21.50;99.90;;;;;;5015570;28;20187;-78
2022/08/19 00:33:03;;;;;;;56.83;53.03;;;21.50;99.90;;;;;;5013721;28;20203;-78
2022/08/19 00:35:29;;;;;;;79.25;74.93;;;21.50;99.90;;;;;;5013101;28;20183;-79
2022/08/19 00:37:55;;;;;;;80.53;75.97;;;21.50;99.90;;;;;;5011802;28;20184;-79
2022/08/19 00:40:21;;;;;;;43.15;40.20;;;21.50;99.90;;;;;;5014405;28;20298;-79
2022/08/19 00:42:47;;;;;;;43.70;41.15;;;21.40;99.90;;;;;;5012804;28;20196;-79
2022/08/19 00:45:19;;;;;;;87.13;82.18;;;21.30;99.90;;;;;;5013246;28;20207;-79
2022/08/19 00:47:45;;;;;;;79.28;74.80;;;21.20;99.90;;;;;;5011540;28;20238;-79
2022/08/19 00:50:16;;;;;;;90.88;85.78;;;21.10;99.90;;;;;;5015567;28;20202;-79
2022/08/19 00:52:46;;;;;;;81.25;76.78;;;21.00;99.90;;;;;;5012806;28;20200;-77
2022/08/19 00:55:19;;;;;;;83.88;79.00;;;20.90;99.90;;;;;;4992925;28;20609;-78
2022/08/19 00:57:54;;;;;;;75.80;71.45;;;20.90;99.90;;;;;;4990581;28;20207;-78
2022/08/19 01:00:24;;;;;;;88.53;83.30;;;20.90;99.90;;;;;;4992365;28;20180;-78
2022/08/19 01:02:51;;;;;;;75.95;71.70;;;20.80;99.90;;;;;;4993006;28;20197;-77
2022/08/19 01:05:22;;;;;;;49.10;46.00;;;20.80;99.90;;;;;;5011915;28;20283;-77
2022/08/19 01:07:50;;;;;;;85.88;81.07;;;20.80;99.90;;;;;;5011129;28;20187;-77
2022/08/19 01:10:20;;;;;;;85.57;80.75;;;20.80;99.90;;;;;;5010540;28;20548;-77
2022/08/19 01:12:47;;;;;;;85.13;80.28;;;20.90;99.90;;;;;;5010438;28;20684;-77
2022/08/19 01:15:18;;;;;;;72.40;68.10;;;20.90;99.90;;;;;;5011519;28;20183;-78
2022/08/19 01:17:45;;;;;;;81.65;76.97;;;20.90;99.90;;;;;;5010959;28;20544;-77
2022/08/19 01:20:18;;;;;;;63.72;59.97;;;20.90;99.90;;;;;;5011837;28;20184;-77
2022/08/19 01:22:51;;;;;;;98.10;92.45;;;20.90;99.90;;;;;;5010187;28;20211;-78
2022/08/19 01:25:20;;;;;;;97.07;91.80;;;21.00;99.90;;;;;;5010706;28;20183;-77
2022/08/19 01:27:49;;;;;;;90.67;85.67;;;21.00;99.90;;;;;;5010102;28;20182;-78
2022/08/19 01:30:25;;;;;;;77.83;73.37;;;21.00;99.90;;;;;;5010240;28;20184;-77
2022/08/19 01:32:52;;;;;;;36.70;34.10;;;21.00;99.90;;;;;;5011485;28;20231;-78
2022/08/19 01:35:18;;;;;;;35.40;33.03;;;21.00;99.90;;;;;;5009899;28;20176;-76
2022/08/19 01:38:15;;;;;;;31.15;29.02;;;21.00;99.90;;;;;;5010767;28;20194;-77
2022/08/19 01:40:42;;;;;;;30.88;28.48;;;21.00;99.90;;;;;;5007208;28;20215;-77
2022/08/19 01:43:08;;;;;;;28.25;25.88;;;21.10;99.90;;;;;;5010101;28;20196;-77
2022/08/19 01:45:35;;;;;;;30.33;28.20;;;21.10;99.90;;;;;;5012463;28;20695;-77
2022/08/19 01:48:02;;;;;;;34.22;31.70;;;21.10;99.90;;;;;;5009724;28;20176;-77
2022/08/19 01:50:30;;;;;;;31.17;29.13;;;21.00;99.90;;;;;;5011706;28;20286;-77
2022/08/19 01:52:56;;;;;;;43.72;40.90;;;21.00;99.90;;;;;;5010410;28;20234;-78
2022/08/19 01:55:23;;;;;;;54.03;50.55;;;21.10;99.90;;;;;;5009275;28;20620;-78
2022/08/19 01:57:57;;;;;;;51.08;47.80;;;21.00;99.90;;;;;;5010062;28;20171;-78
2022/08/19 02:00:27;;;;;;;51.30;47.67;;;21.00;99.90;;;;;;5010316;28;20182;-78
2022/08/19 02:02:53;;;;;;;57.50;54.08;;;21.00;99.90;;;;;;5009925;28;20242;-78
2022/08/19 02:05:21;;;;;;;49.17;46.03;;;21.00;99.90;;;;;;5010223;28;20175;-78
2022/08/19 02:07:47;;;;;;;39.78;37.17;;;21.00;99.90;;;;;;5009423;28;20184;-78
2022/08/19 02:10:20;;;;;;;39.17;36.40;;;20.90;99.90;;;;;;5010215;28;20184;-78
2022/08/19 02:12:46;;;;;;;28.55;26.23;;;20.90;99.90;;;;;;5010079;28;20206;-78
2022/08/19 02:15:13;;;;;;;29.90;27.55;;;20.90;99.90;;;;;;5009971;28;20553;-77
2022/08/19 02:17:40;;;;;;;30.60;28.45;;;20.80;99.90;;;;;;5010432;28;20180;-77
2022/08/19 02:20:07;;;;;;;27.73;25.55;;;20.80;99.90;;;;;;5011393;28;20183;-78
2022/08/19 02:22:33;;;;;;;28.95;26.55;;;20.80;99.90;;;;;;5010917;28;20290;-77
2022/08/19 02:24:59;;;;;;;29.88;27.00;;;20.80;99.90;;;;;;5009782;28;20657;-78
2022/08/19 02:27:26;;;;;;;32.25;29.70;;;20.80;99.90;;;;;;5009302;28;20645;-78
2022/08/19 02:29:53;;;;;;;32.92;29.73;;;20.80;99.90;;;;;;5012055;28;20180;-78
2022/08/19 02:32:19;;;;;;;34.88;32.05;;;20.80;99.90;;;;;;5014689;28;20211;-77
2022/08/19 02:34:46;;;;;;;31.40;28.80;;;20.70;99.90;;;;;;5013500;28;20179;-77
2022/08/19 02:39:57;;;;;;;43.38;40.35;;;20.80;99.90;;;;;;5014873;28;20186;-77
2022/08/19 02:42:23;;;;;;;60.55;56.75;;;20.70;99.90;;;;;;5013368;28;20211;-78
2022/08/19 02:44:49;;;;;;;56.50;52.83;;;20.70;99.90;;;;;;5014979;28;20218;-77
2022/08/19 02:47:15;;;;;;;89.40;84.40;;;20.70;99.90;;;;;;5013367;28;20179;-78
2022/08/19 02:49:41;;;;;;;93.75;88.40;;;20.60;99.90;;;;;;5014493;28;20183;-78
2022/08/19 02:52:07;;;;;;;77.75;73.03;;;20.50;99.90;;;;;;5015039;28;20189;-78
2022/08/19 02:54:33;;;;;;;49.78;46.47;;;20.50;99.90;;;;;;5015535;28;20282;-78
2022/08/19 02:56:59;;;;;;;35.30;32.85;;;20.50;99.90;;;;;;5014743;28;20233;-78
2022/08/19 02:59:26;;;;;;;43.97;40.92;;;20.40;99.90;;;;;;5013136;28;20567;-78
2022/08/19 03:01:52;;;;;;;37.57;34.77;;;20.40;99.90;;;;;;5012408;28;20207;-78
2022/08/19 03:04:19;;;;;;;33.67;30.93;;;20.40;99.90;;;;;;5014107;28;20202;-77
2022/08/19 03:06:46;;;;;;;34.93;32.13;;;20.40;99.90;;;;;;5013830;28;20187;-78
2022/08/19 03:09:13;;;;;;;46.27;42.93;;;20.30;99.90;;;;;;5015132;28;20211;-78
2022/08/19 03:11:40;;;;;;;297.23;280.02;;;20.30;99.90;;;;;;5015166;28;20611;-78
2022/08/19 03:14:08;;;;;;;95.73;89.70;;;20.20;99.90;;;;;;5012949;28;20211;-77
2022/08/19 03:16:44;;;;;;;101.33;95.17;;;20.20;99.90;;;;;;5013997;28;20183;-77
2022/08/19 03:19:10;;;;;;;36.77;34.07;;;20.10;99.90;;;;;;5014066;28;20183;-78
2022/08/19 03:21:35;;;;;;;91.23;85.50;;;20.00;99.90;;;;;;5015492;28;20272;-77
2022/08/19 03:24:05;;;;;;;254.00;239.70;;;20.00;99.90;;;;;;5012955;28;20277;-78
2022/08/19 03:26:31;;;;;;;312.60;295.13;;;20.00;99.90;;;;;;5013710;28;20644;-76
2022/08/19 03:28:57;;;;;;;310.33;293.30;;;20.00;99.90;;;;;;5015502;28;20190;-76
2022/08/19 03:31:24;;;;;;;542.20;508.73;;;20.00;99.90;;;;;;5017412;28;20191;-76
2022/08/19 03:33:51;;;;;;;484.83;455.90;;;20.00;99.90;;;;;;5018356;28;20298;-76
2022/08/19 03:36:23;;;;;;;415.70;391.97;;;20.00;99.90;;;;;;5015299;28;20715;-75
2022/08/19 03:38:54;;;;;;;343.93;324.60;;;20.00;99.90;;;;;;5014847;28;20654;-76
2022/08/19 03:41:37;;;;;;;358.97;338.33;;;20.00;99.90;;;;;;5016623;28;20619;-72
2022/08/19 03:44:04;;;;;;;398.43;376.30;;;20.00;99.90;;;;;;5006820;28;20204;-72
2022/08/19 03:46:34;;;;;;;313.90;296.17;;;20.00;99.90;;;;;;5012779;28;20179;-73
2022/08/19 03:49:03;;;;;;;456.03;429.83;;;20.00;99.90;;;;;;5010918;28;20186;-73
2022/08/19 03:51:37;;;;;;;262.47;247.87;;;20.00;99.90;;;;;;5012245;28;20179;-73
2022/08/19 03:54:05;;;;;;;460.70;435.07;;;20.00;99.90;;;;;;5013115;28;20714;-73
2022/08/19 03:56:34;;;;;;;437.73;412.73;;;20.00;99.90;;;;;;5011827;28;20242;-74
2022/08/19 03:59:01;;;;;;;511.53;482.23;;;20.00;99.90;;;;;;5011108;28;20180;-73
2022/08/19 04:01:28;;;;;;;519.40;489.33;;;20.00;99.90;;;;;;5012636;28;20624;-73
2022/08/19 04:03:56;;;;;;;504.60;475.37;;;20.00;99.90;;;;;;5012469;28;20250;-73
2022/08/19 04:06:27;;;;;;;516.47;486.90;;;20.00;99.90;;;;;;5012168;28;20656;-73
2022/08/19 04:08:55;;;;;;;494.53;466.40;;;20.00;99.90;;;;;;5011928;28;20180;-73
2022/08/19 04:11:24;;;;;;;500.97;472.40;;;19.90;99.90;;;;;;5012698;28;20587;-73
2022/08/19 04:13:52;;;;;;;468.80;441.97;;;19.90;99.90;;;;;;5011281;28;20211;-73
2022/08/19 04:16:19;;;;;;;431.77;407.17;;;19.90;99.90;;;;;;5011527;28;20652;-73
2022/08/19 04:18:47;;;;;;;383.70;362.07;;;19.90;99.90;;;;;;5011662;28;20214;-72
2022/08/19 04:21:18;;;;;;;448.50;422.60;;;19.90;99.90;;;;;;5011695;28;20203;-71
2022/08/19 04:23:45;;;;;;;387.42;365.52;;;19.90;99.90;;;;;;5011980;28;20288;-72
2022/08/19 04:26:19;;;;;;;413.23;389.07;;;20.00;99.90;;;;;;5008871;28;20603;-72
2022/08/19 04:28:46;;;;;;;445.13;419.00;;;20.00;99.90;;;;;;5008437;28;20194;-73
2022/08/19 04:31:15;;;;;;;425.33;400.87;;;19.90;99.90;;;;;;5006797;28;20547;-72
2022/08/19 04:33:41;;;;;;;300.13;283.50;;;19.90;99.90;;;;;;5006688;28;20219;-72
2022/08/19 04:36:07;;;;;;;279.03;263.47;;;19.90;99.90;;;;;;5013001;28;20194;-72
2022/08/19 04:38:33;;;;;;;151.53;142.37;;;20.00;99.90;;;;;;5019062;28;20191;-71
2022/08/19 04:43:48;;;;;;;113.20;106.27;;;20.00;99.90;;;;;;5012086;28;20203;-72
2022/08/19 04:46:14;;;;;;;141.47;133.13;;;20.10;99.90;;;;;;5012127;28;20233;-72
2022/08/19 04:48:41;;;;;;;151.47;142.80;;;20.10;99.90;;;;;;5011284;28;20187;-73
2022/08/19 04:51:12;;;;;;;145.07;136.47;;;20.10;99.90;;;;;;5012102;28;20210;-72
2022/08/19 04:53:40;;;;;;;125.67;118.37;;;20.10;99.90;;;;;;5010094;28;20218;-73
2022/08/19 04:56:09;;;;;;;72.03;67.00;;;20.10;99.90;;;;;;5011224;28;20194;-71
2022/08/19 04:58:37;;;;;;;84.93;79.63;;;20.20;99.90;;;;;;5009827;28;20266;-72
2022/08/19 05:01:03;;;;;;;127.43;119.73;;;20.20;99.90;;;;;;5011801;28;20203;-72
2022/08/19 05:03:33;;;;;;;117.25;110.20;;;20.20;99.90;;;;;;5011492;28;20207;-71
2022/08/19 05:06:04;;;;;;;77.13;72.17;;;20.20;99.90;;;;;;5011667;28;20202;-75
2022/08/19 05:08:30;;;;;;;123.87;116.43;;;20.20;99.90;;;;;;5010399;28;20640;-71
2022/08/19 05:10:57;;;;;;;69.03;64.23;;;20.20;99.90;;;;;;5010665;28;20183;-72
2022/08/19 05:13:23;;;;;;;51.00;47.13;;;20.30;99.90;;;;;;5011453;28;20200;-75
2022/08/19 05:15:57;;;;;;;43.73;39.83;;;20.30;99.90;;;;;;5010118;28;20246;-77
2022/08/19 05:23:58;;;;;;;27.53;24.63;;;20.30;99.90;;;;;;5011908;28;20211;-77
2022/08/19 05:26:28;;;;;;;27.40;24.57;;;20.30;99.90;;;;;;5012530;28;20532;-77
2022/08/19 05:28:54;;;;;;;26.77;24.07;;;20.30;99.90;;;;;;5011769;28;20211;-77
2022/08/19 05:31:21;;;;;;;27.63;24.77;;;20.30;99.90;;;;;;5011408;28;20610;-77
2022/08/19 05:33:47;;;;;;;30.93;27.83;;;20.30;99.90;;;;;;5020525;28;20204;-76
2022/08/19 05:36:13;;;;;;;41.45;38.03;;;20.30;99.90;;;;;;5018764;28;20184;-77
2022/08/19 05:38:40;;;;;;;45.50;41.37;;;20.30;99.90;;;;;;5016332;28;20184;-77
2022/08/19 05:41:12;;;;;;;40.57;36.93;;;20.30;99.90;;;;;;5012232;28;20207;-77
2022/08/19 05:43:38;;;;;;;40.43;36.63;;;20.30;99.90;;;;;;5011792;28;20582;-77
2022/08/19 05:46:06;;;;;;;89.73;83.73;;;20.30;99.90;;;;;;5013052;28;20179;-77
2022/08/19 05:48:33;;;;;;;67.70;62.87;;;20.30;99.90;;;;;;5018927;28;20180;-76
2022/08/19 05:51:06;;;;;;;116.17;108.77;;;20.30;99.90;;;;;;5014557;28;20266;-77
2022/08/19 05:53:33;;;;;;;159.10;149.93;;;20.30;99.90;;;;;;5014412;28;20255;-77
2022/08/19 05:56:08;;;;;;;211.00;199.30;;;20.30;99.90;;;;;;5013703;28;20572;-78
2022/08/19 05:58:34;;;;;;;215.10;203.13;;;20.30;99.90;;;;;;5011358;28;20274;-76
2022/08/19 06:01:05;;;;;;;230.07;217.03;;;20.30;99.90;;;;;;5012153;28;20297;-78
2022/08/19 06:03:37;;;;;;;230.17;216.80;;;20.30;99.90;;;;;;5015085;28;20199;-76
2022/08/19 06:06:04;;;;;;;438.33;411.97;;;20.30;99.90;;;;;;5019543;28;20191;-77
2022/08/19 06:08:30;;;;;;;217.77;204.00;;;20.20;99.90;;;;;;5021678;28;20185;-77
2022/08/19 06:10:56;;;;;;;155.63;145.77;;;20.10;99.90;;;;;;5016799;28;20259;-78
2022/08/19 06:13:23;;;;;;;147.97;138.17;;;19.90;99.90;;;;;;5020149;28;20611;-78
2022/08/19 06:15:49;;;;;;;449.53;419.73;;;19.80;99.90;;;;;;5016065;28;20191;-78
2022/08/19 06:18:16;;;;;;;369.40;344.87;;;19.70;99.90;;;;;;5012954;28;20184;-76
2022/08/19 06:20:42;;;;;;;289.60;271.50;;;19.70;99.90;;;;;;5016611;28;20696;-76
2022/08/19 06:23:08;;;;;;;182.10;170.27;;;19.70;99.90;;;;;;5015733;28;20305;-76
2022/08/19 06:25:35;;;;;;;295.37;277.13;;;19.60;99.90;;;;;;5016195;28;20196;-75
2022/08/19 06:28:02;;;;;;;281.87;264.50;;;19.60;99.90;;;;;;5014643;28;20209;-76
2022/08/19 06:30:28;;;;;;;188.53;176.53;;;19.50;99.90;;;;;;5033451;28;20179;-76
2022/08/19 06:32:53;;;;;;;79.27;73.10;;;19.40;99.90;;;;;;5030518;28;20258;-77
2022/08/19 06:35:19;;;;;;;62.60;57.30;;;19.40;99.90;;;;;;5013645;28;20184;-76
2022/08/19 06:37:45;;;;;;;148.17;138.00;;;19.40;99.90;;;;;;5012583;28;20175;-76
2022/08/19 06:40:12;;;;;;;85.40;78.50;;;19.40;99.90;;;;;;5014497;28;20558;-77
2022/08/19 06:42:39;;;;;;;107.83;99.97;;;19.50;99.90;;;;;;5013225;28;20222;-76
2022/08/19 06:45:08;;;;;;;80.40;74.13;;;19.50;99.90;;;;;;5014473;28;20180;-75
2022/08/19 06:47:34;;;;;;;52.23;47.13;;;19.60;99.90;;;;;;5013628;28;20644;-76
2022/08/19 06:50:02;;;;;;;65.97;60.30;;;19.60;99.90;;;;;;5013079;28;20207;-75
2022/08/19 06:52:33;;;;;;;78.73;72.80;;;19.60;99.90;;;;;;5014196;28;20200;-78
2022/08/19 06:55:00;;;;;;;64.77;59.07;;;19.60;99.90;;;;;;5014128;28;20183;-75
2022/08/19 06:57:27;;;;;;;62.23;57.00;;;19.70;99.90;;;;;;5013247;28;20183;-77
2022/08/19 06:59:53;;;;;;;74.83;69.10;;;19.70;99.90;;;;;;5013679;28;20265;-76
2022/08/19 07:02:20;;;;;;;77.70;71.50;;;19.70;99.90;;;;;;5012907;28;20255;-77
2022/08/19 07:04:46;;;;;;;113.63;105.70;;;19.80;99.90;;;;;;5014153;28;20329;-75
2022/08/19 07:07:14;;;;;;;102.33;94.80;;;19.90;99.90;;;;;;5011522;28;20172;-74
2022/08/19 07:09:43;;;;;;;53.70;48.73;;;20.00;99.90;;;;;;5012635;28;20180;-76
2022/08/19 07:12:12;;;;;;;38.53;34.63;;;20.00;99.90;;;;;;5012765;28;20175;-77
2022/08/19 07:14:39;;;;;;;56.33;51.30;;;20.00;99.90;;;;;;5012898;28;20187;-76
2022/08/19 07:17:10;;;;;;;117.97;109.43;;;20.00;99.90;;;;;;5011325;28;20191;-76
2022/08/19 07:19:38;;;;;;;144.93;135.40;;;20.00;99.90;;;;;;5013085;28;20230;-77
2022/08/19 07:22:06;;;;;;;99.70;92.03;;;19.90;99.90;;;;;;5012744;28;20212;-77
2022/08/19 07:24:33;;;;;;;147.83;137.73;;;19.80;99.90;;;;;;5013186;28;20188;-76
2022/08/19 07:27:02;;;;;;;142.83;132.77;;;19.80;99.90;;;;;;5013995;28;20648;-77
2022/08/19 07:29:32;;;;;;;90.53;83.73;;;19.90;99.90;;;;;;5014368;28;20706;-78
2022/08/19 07:32:00;;;;;;;160.60;150.03;;;19.90;99.90;;;;;;5015009;28;20215;-76
2022/08/19 07:34:28;;;;;;;131.13;122.03;;;19.90;99.90;;;;;;5015416;28;20180;-75
2022/08/19 07:36:55;;;;;;;103.33;95.57;;;19.80;99.90;;;;;;5021524;28;20203;-77
2022/08/19 07:39:30;;;;;;;101.40;94.07;;;19.80;99.90;;;;;;5022023;28;20182;-76
2022/08/19 07:41:58;;;;;;;104.37;96.80;;;19.70;99.90;;;;;;5021745;28;20265;-77
2022/08/19 07:44:25;;;;;;;82.40;75.90;;;19.70;99.90;;;;;;5014816;28;20309;-78
2022/08/19 07:46:55;;;;;;;48.83;43.87;;;19.80;99.90;;;;;;5012487;28;20207;-78
2022/08/19 07:49:22;;;;;;;60.10;54.90;;;19.70;99.90;;;;;;5013482;28;20191;-77
2022/08/19 07:51:50;;;;;;;61.97;56.73;;;19.80;99.90;;;;;;5015340;28;20187;-78
2022/08/19 07:54:18;;;;;;;43.87;39.57;;;19.80;99.90;;;;;;5013977;28;20200;-77
2022/08/19 07:56:44;;;;;;;77.43;71.57;;;19.90;99.90;;;;;;5012215;28;20278;-78
2022/08/19 07:59:10;;;;;;;84.17;77.83;;;19.90;99.90;;;;;;5012533;28;20184;-78
2022/08/19 08:01:36;;;;;;;39.90;34.47;;;20.00;99.90;;;;;;5013098;28;20559;-78
2022/08/19 08:09:35;;;;;;;40.07;31.90;;;20.30;99.90;;;;;;5012050;28;20179;-77
2022/08/19 08:12:10;;;;;;;64.10;58.57;;;20.40;99.90;;;;;;5011636;28;20624;-76
2022/08/19 08:14:46;;;;;;;55.27;50.37;;;20.50;99.90;;;;;;5011513;28;20194;-76
2022/08/19 08:17:12;;;;;;;36.27;31.30;;;20.60;99.90;;;;;;5012358;28;20214;-76
2022/08/19 08:19:40;;;;;;;74.53;68.77;;;20.60;99.90;;;;;;5013294;28;20186;-76
2022/08/19 08:23:21;;;;;;;36.40;30.63;;;20.50;99.90;;;;;;5010540;28;20615;-75
2022/08/19 08:24:55;;;;;;;80.00;74.07;;;20.50;99.90;;;;;;5011850;28;20745;-76
2022/08/19 08:27:21;;;;;;;76.30;70.53;;;20.60;99.90;;;;;;5008952;28;20560;-76
2022/08/19 08:29:48;;;;;;;95.63;89.17;;;20.60;99.90;;;;;;5013449;28;20208;-76
2022/08/19 08:32:14;;;;;;;97.47;90.37;;;20.50;99.90;;;;;;5031023;28;20273;-76
2022/08/19 08:34:41;;;;;;;68.50;63.47;;;20.50;99.90;;;;;;5031053;28;20607;-76
2022/08/19 08:37:07;;;;;;;91.90;85.47;;;20.60;99.90;;;;;;5026966;28;20599;-76
2022/08/19 08:39:32;;;;;;;95.43;88.77;;;20.60;99.90;;;;;;5012112;28;20274;-76
2022/08/19 08:42:02;;;;;;;97.73;91.27;;;20.80;99.90;;;;;;5011926;28;20207;-76
2022/08/19 08:44:42;;;;;;;59.33;54.77;;;20.90;99.90;;;;;;5012253;28;20263;-76
2022/08/19 08:47:16;;;;;;;42.53;38.40;;;21.00;99.90;;;;;;5010273;28;20180;-76
2022/08/19 08:49:56;;;;;;;89.87;83.30;;;21.00;99.90;;;;;;5010730;28;20286;-76
2022/08/19 08:52:26;;;;;;;59.07;54.17;;;20.90;99.90;;;;;;5011836;28;20209;-76
2022/08/19 08:54:56;;;;;;;101.27;94.17;;;20.80;99.90;;;;;;5010724;28;20270;-76
2022/08/19 08:57:36;;;;;;;89.27;82.93;;;20.70;99.90;;;;;;5010052;28;20184;-78
2022/08/19 09:00:07;;;;;;;51.33;46.67;;;20.60;99.90;;;;;;5012133;28;20262;-77
2022/08/19 09:02:36;;;;;;;49.83;45.53;;;20.60;99.90;;;;;;5012137;28;20215;-77
2022/08/19 09:05:02;;;;;;;41.20;36.73;;;20.60;99.90;;;;;;5012255;28;20199;-77
2022/08/19 09:07:47;;;;;;;51.87;47.57;;;20.50;99.90;;;;;;5010941;28;20176;-77
2022/08/19 09:10:32;;;;;;;60.43;55.30;;;20.40;99.90;;;;;;5012284;28;20187;-74
2022/08/19 09:13:31;;;;;;;84.57;78.47;;;20.30;99.90;;;;;;5010226;28;20211;-75
2022/08/19 09:16:04;;;;;;;77.37;71.80;;;20.20;99.90;;;;;;5011501;28;20188;-75
2022/08/19 09:18:54;;;;;;;69.23;63.93;;;20.20;99.90;;;;;;5011818;28;20270;-76
2022/08/19 09:21:25;;;;;;;45.23;41.17;;;20.20;99.90;;;;;;5010224;28;20208;-76
2022/08/19 09:23:51;;;;;;;167.13;156.67;;;20.10;99.90;;;;;;5009921;28;20215;-76
2022/08/19 09:26:20;;;;;;;33.10;28.90;;;20.20;99.90;;;;;;5011560;28;20644;-77
2022/08/19 09:28:48;;;;;;;67.57;61.90;;;20.10;99.90;;;;;;5009145;28;20649;-77
2022/08/19 09:31:23;;;;;;;148.03;138.60;;;20.20;99.90;;;;;;5011351;28;20593;-77
2022/08/19 09:33:49;;;;;;;36.37;32.60;;;20.20;99.90;;;;;;5011417;28;20211;-77
2022/08/19 09:36:18;;;;;;;87.10;81.10;;;20.30;99.90;;;;;;5010250;28;20266;-79
2022/08/19 09:38:45;;;;;;;88.77;82.70;;;20.30;99.90;;;;;;5011610;28;20191;-77
2022/08/19 09:41:14;;;;;;;105.50;97.83;;;20.30;99.90;;;;;;5016435;28;20206;-77
2022/08/19 09:43:42;;;;;;;64.50;59.50;;;20.30;99.90;;;;;;5016784;28;20206;-78
2022/08/19 09:46:09;;;;;;;95.73;89.43;;;20.30;99.90;;;;;;5017048;28;20199;-78
2022/08/19 09:48:42;;;;;;;61.10;56.27;;;20.30;99.90;;;;;;5014927;28;20250;-79
2022/08/19 09:51:11;;;;;;;63.70;58.77;;;20.30;99.90;;;;;;5011525;28;20194;-78
2022/08/19 09:53:38;;;;;;;39.23;35.50;;;20.30;99.90;;;;;;5011443;28;20266;-78
2022/08/19 09:56:05;;;;;;;36.87;32.90;;;20.40;99.90;;;;;;5011000;28;20718;-78
2022/08/19 09:58:32;;;;;;;38.67;35.10;;;20.40;99.90;;;;;;5012705;28;20202;-78
2022/08/19 10:01:00;;;;;;;62.27;56.67;;;20.50;99.90;;;;;;5012064;28;20207;-78
2022/08/19 10:03:27;;;;;;;73.33;67.87;;;20.60;99.90;;;;;;5011708;28;20196;-79
2022/08/19 10:05:54;;;;;;;37.00;33.47;;;20.80;99.90;;;;;;5009895;28;20270;-78
2022/08/19 10:08:23;;;;;;;51.17;47.00;;;20.90;99.90;;;;;;5009087;28;20641;-77
2022/08/19 10:10:50;;;;;;;41.10;37.60;;;21.00;99.90;;;;;;5011102;28;20211;-77
2022/08/19 10:13:21;;;;;;;32.50;25.07;;;21.10;99.90;;;;;;5010759;28;20637;-77
2022/08/19 10:15:50;;;;;;;113.40;106.07;;;21.10;99.90;;;;;;5011051;28;20222;-79
2022/08/19 10:18:19;;;;;;;77.10;71.53;;;21.20;99.90;;;;;;5009215;28;20194;-77
2022/08/19 10:20:47;;;;;;;57.43;53.03;;;21.20;99.90;;;;;;5011448;28;20275;-78
2022/08/19 10:23:14;;;;;;;131.93;123.57;;;21.30;99.90;;;;;;5010907;28;20599;-77
2022/08/19 10:25:41;;;;;;;101.20;94.68;;;21.40;99.90;;;;;;5009945;28;20640;-77
2022/08/19 10:28:07;;;;;;;187.63;176.45;;;21.70;99.90;;;;;;5014139;28;20179;-77
2022/08/19 10:30:35;;;;;;;54.30;50.08;;;22.00;99.90;;;;;;5009912;28;20652;-77
2022/08/19 10:33:02;;;;;;;50.90;46.70;;;22.20;99.90;;;;;;5009666;28;20253;-77
2022/08/19 10:35:29;;;;;;;34.70;31.13;;;22.10;99.90;;;;;;5009768;28;20226;-77
2022/08/19 10:37:58;;;;;;;54.57;50.27;;;22.00;99.90;;;;;;5008504;28;20182;-77
2022/08/19 10:40:26;;;;;;;66.00;60.60;;;22.00;99.90;;;;;;5009363;28;20215;-77
2022/08/19 10:42:53;;;;;;;58.63;54.05;;;22.00;99.90;;;;;;5009875;28;20218;-78
2022/08/19 10:45:23;;;;;;;56.13;51.50;;;21.90;99.90;;;;;;5010906;28;20188;-80
2022/08/19 10:47:49;;;;;;;40.40;36.67;;;22.00;99.90;;;;;;5028149;28;20248;-77
2022/08/19 10:53:04;;;;;;;143.98;134.90;;;22.00;99.90;;;;;;5001796;28;20290;-80
2022/08/19 10:58:22;;;;;;;309.58;292.38;;;22.00;99.90;;;;;;5003968;28;20180;-78
2022/08/19 11:00:56;;;;;;;246.25;232.20;;;21.90;99.90;;;;;;5030519;28;20840;-79
2022/08/19 11:03:23;;;;;;;260.02;244.48;;;21.80;99.90;;;;;;5036267;28;20199;-79
2022/08/19 11:06:03;;;;;;;253.52;239.15;;;21.80;99.90;;;;;;5027003;28;20179;-79
2022/08/19 11:08:30;;;;;;;80.35;74.65;;;21.70;99.90;;;;;;5016562;28;20194;-80
2022/08/19 11:11:00;;;;;;;253.82;239.55;;;21.70;99.90;;;;;;5017945;28;20184;-79
2022/08/19 11:13:30;;;;;;;58.20;53.88;;;21.70;99.90;;;;;;5017520;28;20223;-79
2022/08/19 11:16:01;;;;;;;184.38;173.35;;;21.70;99.90;;;;;;5026949;28;20187;-80
2022/08/19 11:18:27;;;;;;;134.88;126.32;;;21.70;99.90;;;;;;5015043;28;20183;-79
2022/08/19 11:20:53;;;;;;;97.47;90.65;;;21.60;99.90;;;;;;5015168;28;20203;-79
2022/08/19 11:23:19;;;;;;;65.85;60.83;;;21.50;99.90;;;;;;5013026;28;20218;-80
2022/08/19 11:25:46;;;;;;;40.67;36.55;;;21.40;99.90;;;;;;5014835;28;20618;-79
2022/08/19 11:28:12;;;;;;;65.00;59.97;;;21.40;99.90;;;;;;5015388;28;20802;-77
2022/08/19 11:30:39;;;;;;;74.78;69.15;;;21.30;99.90;;;;;;5012024;28;20667;-77
2022/08/19 11:33:05;;;;;;;52.47;47.65;;;21.20;99.90;;;;;;5010874;28;20778;-78
2022/08/19 11:35:32;;;;;;;60.05;54.75;;;21.20;99.90;;;;;;5011002;28;20187;-77
2022/08/19 11:37:59;;;;;;;137.52;128.18;;;21.10;99.90;;;;;;5011215;28;20214;-78
2022/08/19 11:40:25;;;;;;;115.25;107.38;;;21.20;99.90;;;;;;5025614;28;20189;-77
2022/08/19 11:42:55;;;;;;;111.37;104.00;;;21.10;99.90;;;;;;5032893;28;20215;-79
2022/08/19 11:45:21;;;;;;;122.75;114.35;;;21.10;99.90;;;;;;5032869;28;20179;-78
2022/08/19 11:47:48;;;;;;;83.65;76.93;;;21.10;99.90;;;;;;5024162;28;20845;-78
2022/08/19 11:50:15;;;;;;;163.97;153.17;;;21.10;99.90;;;;;;5017580;28;20180;-79
2022/08/19 11:52:41;;;;;;;148.10;138.50;;;21.10;99.90;;;;;;5016654;28;20632;-78
2022/08/19 11:55:07;;;;;;;157.07;147.23;;;21.10;99.90;;;;;;5017383;28;20256;-79
2022/08/19 11:57:33;;;;;;;173.50;162.73;;;21.00;99.90;;;;;;5011498;28;20274;-78
2022/08/19 12:00:01;;;;;;;139.47;129.77;;;20.90;99.90;;;;;;5012273;28;20661;-78
2022/08/19 12:02:27;;;;;;;126.47;118.00;;;20.70;99.90;;;;;;5012356;28;20263;-78
2022/08/19 12:04:53;;;;;;;54.40;49.13;;;20.60;99.90;;;;;;5013648;28;20183;-78
2022/08/19 12:07:20;;;;;;;71.77;65.97;;;20.40;99.90;;;;;;5012410;28;20183;-79
2022/08/19 12:09:46;;;;;;;74.03;68.10;;;20.20;99.90;;;;;;5013159;28;20179;-78
2022/08/19 12:12:11;;;;;;;130.07;121.10;;;20.10;99.90;;;;;;5014239;28;20183;-78
2022/08/19 12:14:38;;;;;;;96.57;89.27;;;20.00;99.90;;;;;;5015992;28;20183;-78
2022/08/19 12:17:06;;;;;;;89.50;82.53;;;19.90;99.90;;;;;;5014139;28;20596;-78
2022/08/19 12:19:33;;;;;;;83.33;76.83;;;19.90;99.90;;;;;;5011474;28;20604;-78
2022/08/19 12:22:02;;;;;;;57.97;52.53;;;19.90;99.90;;;;;;5012117;28;20586;-78
2022/08/19 12:24:31;;;;;;;56.30;50.47;;;19.80;99.90;;;;;;5013244;28;20640;-78
2022/08/19 12:26:58;;;;;;;72.43;66.17;;;19.90;99.90;;;;;;5023280;28;20651;-78
2022/08/19 12:29:28;;;;;;;65.17;59.33;;;19.90;99.90;;;;;;5028020;28;20594;-77
2022/08/19 12:32:00;;;;;;;69.63;63.73;;;19.90;99.90;;;;;;5012278;28;20194;-78
2022/08/19 12:34:29;;;;;;;79.73;73.00;;;19.90;99.90;;;;;;5012904;28;20547;-77
2022/08/19 12:37:01;;;;;;;97.00;89.60;;;19.90;99.90;;;;;;5010473;28;20194;-80
2022/08/19 12:39:26;;;;;;;153.77;143.17;;;19.90;99.90;;;;;;5012472;28;20192;-78
2022/08/19 12:41:52;;;;;;;129.37;119.97;;;19.90;99.90;;;;;;5012359;28;20668;-77
2022/08/19 12:44:18;;;;;;;100.80;92.70;;;19.80;99.90;;;;;;5013098;28;20195;-79
2022/08/19 12:46:45;;;;;;;84.17;76.97;;;19.80;99.90;;;;;;5011786;28;20180;-79
2022/08/19 12:49:11;;;;;;;63.97;57.33;;;19.90;99.90;;;;;;5011874;28;20661;-78